Terminal Aerodrome Forecast
Issued by NWS Spokane, WA

Home | Current Version | Previous Version | Text Only | Print | Product List | Glossary On
Versions: 1 2 3 4 5 6 7 8 9 10 11 12 13 14 15 16 17 18 19 20 21 22 23
000
FTUS46 KOTX 201130
TAFGEG
TAF
KGEG 201130Z 2012/2112 14004KT P6SM OVC090
     FM201500 10008KT 3SM -RASN BR OVC010
     FM202100 18010G20KT P6SM -SHRA BKN035 OVC100
     FM210100 21015G23KT P6SM -SHRA BKN035 OVC080
     FM210700 21008KT P6SM BKN010=

USA.gov is the U.S. government's official web portal to all federal, state and local government web resources and services.